ADDS METAR Data INFO
IDs: Format: Raw Decoded Include TAF

Data at: 1311 UTC 19 Jul 2018

KVBT 191256Z AUTO 12005KT 9SM CLR 24/23 A2996 RMK AO2 SLP134 T02390228
KVBT 191156Z AUTO 12006KT 7SM CLR 23/22 A2995 RMK AO2 SLP131 70001 T02330222 10244 20228 53002
KVBT 191056Z AUTO 12005KT 9SM CLR 23/22 A2994 RMK AO2 SLP128 T02280222
KVBT 190956Z AUTO 14003KT 9SM CLR 23/22 A2995 RMK AO2 SLP130 T02280222
KVBT 190856Z AUTO 15004KT 9SM CLR 23/22 A2995 RMK AO2 SLP129 T02280222 56013
KVBT 190756Z AUTO 13005KT 10SM CLR 23/23 A2995 RMK AO2 SLP130 T02330228
KVBT 190656Z AUTO 15003KT 10SM CLR 24/23 A2997 RMK AO2 SLP136 T02390228
KVBT 190556Z AUTO 11003KT 10SM CLR 24/23 A2999 RMK AO2 SLP142 T02440228 10289 20244 403060222 51007
KVBT 190456Z AUTO 16003KT 10SM CLR 24/23 A2997 RMK AO2 SLP140 T02440228
KVBT 190356Z AUTO 17003KT 10SM CLR 25/23 A2998 RMK AO2 SLP141 T02500228
KVBT 190256Z AUTO 19005KT 10SM CLR 26/23 A2996 RMK AO2 SLP136 T02610228 53007
KVBT 190056Z AUTO 23004KT 10SM CLR 28/23 A2994 RMK AO2 SLP129 T02780228
KVBT 182356Z AUTO 19004KT 10SM CLR 29/22 A2994 RMK AO2 SLP128 T02890222 10306 20272 58008
KVBT 182256Z AUTO 00000KT 10SM CLR 29/22 A2996 RMK AO2 SLP132 T02940222
KVBT 182156Z AUTO 15005KT 10SM CLR 29/22 A2996 RMK AO2 SLP134 T02940222
KVBT 182123Z AUTO 21006KT 10SM SCT029 29/21 A2997 RMK AO2
KVBT 182056Z AUTO 17008KT 10SM BKN029 30/23 A2997 RMK AO2 SLP136 T03000228 58015
KVBT 182047Z AUTO 23005KT 10SM BKN027 29/22 A2998 RMK AO2
KVBT 181956Z AUTO 17005KT 10SM CLR 29/23 A2999 RMK AO2 SLP145 T02890228
KVBT 181856Z AUTO 17005KT 10SM FEW060 28/23 A3001 RMK AO2 SLP152 T02780228
KVBT 181756Z AUTO 17007KT 10SM CLR 28/23 A3001 RMK AO2 SLP152 60001 T02780228 10278 20222 58006
KVBT 181656Z AUTO 20003KT 10SM CLR 27/23 A3003 RMK AO2 SLP159 T02670228
KVBT 181556Z AUTO 14005KT 10SM CLR 24/22 A3002 RMK AO2 RAE04B21E32 SLP157 P0000 T02440222
KVBT 181456Z AUTO 13006KT 10SM -RA CLR 24/22 A3003 RMK AO2 RAB24 SLP160 P0000 60001 T02390222 58001
KVBT 181356Z AUTO 15007KT 10SM CLR 23/22 A3004 RMK AO2 SLP164 T02330217
KVBT 181256Z AUTO 13006KT 10SM FEW046 23/22 A3004 RMK AO2 RAE14 SLP161 P0001 T02280217
KVBT 181156Z AUTO 13007KT 9SM -RA FEW036 BKN049 22/22 A3004 RMK AO2 LTG DSNT SE AND S TSE13 SLP161 P0011 60035 70041 T02220217 10239 20222 50001
KVBT 181119Z AUTO 10005KT 9SM -RA SCT033 BKN046 22/22 A3005 RMK AO2 LTG DSNT SE AND S TSE13 P0009
KVBT 181056Z AUTO 16010KT 3SM +TSRA BR FEW024 SCT046 SCT060 22/22 A3005 RMK AO2 LTG DSNT S-NW TSB29E47B48RAB18 SLP167 P0023 T02220217
KVBT 181035Z AUTO 29006KT 10SM -TSRA FEW045 SCT060 SCT080 23/22 A3006 RMK AO2 LTG DSNT SW AND NW TSB29RAB18 P0001
KVBT 180956Z AUTO 09004KT 10SM CLR 23/22 A3002 RMK AO2 RAB33E52 SLP157 P0001 T02330217
KVBT 180856Z AUTO 00000KT 10SM FEW095 23/22 A3003 RMK AO2 SLP161 T02330222 58004
KVBT 180756Z AUTO 00000KT 10SM FEW100 23/22 A3004 RMK AO2 SLP163 T02330222
KVBT 180656Z AUTO 00000KT 10SM CLR 23/22 A3004 RMK AO2 SLP160 T02330222
KVBT 180556Z AUTO 15003KT 10SM CLR 24/22 A3004 RMK AO2 RAE05 SLP161 P0000 60000 T02390222 10256 20239 403330222 58005
KVBT 180456Z AUTO 12004KT 10SM -RA FEW100 24/22 A3006 RMK AO2 RAB41 SLP167 P0000 T02390222
KVBT 180356Z AUTO 12005KT 10SM SCT095 24/22 A3006 RMK AO2 SLP166 T02440217
KVBT 180256Z AUTO 11005KT 10SM BKN095 BKN110 24/22 A3006 RMK AO2 SLP167 T02440222 53006
KVBT 180156Z AUTO 08005KT 10SM CLR 24/22 A3005 RMK AO2 SLP165 T02440217